createdAt,value
2019-02-23T00:00:41.073Z,21.70
2019-02-23T00:03:56.941Z,21.70
2019-02-23T00:07:12.792Z,21.70
2019-02-23T00:10:28.798Z,21.70
2019-02-23T00:13:44.810Z,21.70
2019-02-23T00:17:00.192Z,21.70
2019-02-23T00:20:14.073Z,21.70
2019-02-23T00:23:29.570Z,21.70
2019-02-23T00:26:45.678Z,21.60
2019-02-23T00:30:01.406Z,21.60
2019-02-23T00:33:16.686Z,21.60
2019-02-23T00:36:31.905Z,21.60
2019-02-23T00:39:47.677Z,21.60
2019-02-23T00:43:03.815Z,21.60
2019-02-23T00:46:19.142Z,21.60
2019-02-23T00:49:36.527Z,21.60
2019-02-23T00:52:52.106Z,21.60
2019-02-23T00:56:08.019Z,21.60
2019-02-23T00:59:23.945Z,21.60
2019-02-23T01:02:39.990Z,21.50
2019-02-23T01:05:55.322Z,21.50
2019-02-23T01:09:10.546Z,21.60
2019-02-23T01:12:26.777Z,21.60
2019-02-23T01:15:42.714Z,21.50
2019-02-23T01:18:58.657Z,21.50
2019-02-23T01:22:13.903Z,21.50
2019-02-23T01:25:29.959Z,21.50
2019-02-23T01:28:45.311Z,21.50
2019-02-23T01:32:00.917Z,21.50
2019-02-23T01:35:16.236Z,21.50
2019-02-23T01:38:31.403Z,21.50
2019-02-23T01:41:47.142Z,21.50
2019-02-23T01:45:03.033Z,21.50
2019-02-23T01:48:18.727Z,21.50
2019-02-23T01:51:34.058Z,21.50
2019-02-23T01:54:49.357Z,21.50
2019-02-23T01:58:03.045Z,21.50
2019-02-23T02:01:25.801Z,21.40
2019-02-23T02:04:29.067Z,21.50
2019-02-23T02:14:51.231Z,21.50
2019-02-23T02:18:04.879Z,21.50
2019-02-23T02:21:27.863Z,21.40
2019-02-23T02:24:43.992Z,21.40
2019-02-23T02:27:59.251Z,21.40
2019-02-23T02:31:15.396Z,21.40
2019-02-23T02:34:31.390Z,21.40
2019-02-23T02:37:46.795Z,21.40
2019-02-23T02:41:02.058Z,21.40
2019-02-23T02:44:17.247Z,21.40
2019-02-23T02:47:33.265Z,21.40
2019-02-23T02:50:49.107Z,21.40
2019-02-23T02:54:05.107Z,21.40
2019-02-23T02:57:21.080Z,21.40
2019-02-23T03:00:36.291Z,21.40
2019-02-23T03:03:51.581Z,21.40
2019-02-23T03:07:07.634Z,21.40
2019-02-23T03:10:23.056Z,21.40
2019-02-23T03:13:38.350Z,21.40
2019-02-23T03:16:54.374Z,21.30
2019-02-23T03:20:10.205Z,21.30
2019-02-23T03:23:26.179Z,21.40
2019-02-23T03:26:39.758Z,21.30
2019-02-23T03:29:55.141Z,21.30
2019-02-23T03:33:10.879Z,21.30
2019-02-23T03:36:24.450Z,21.30
2019-02-23T03:39:39.904Z,21.30
2019-02-23T03:42:53.502Z,21.30
2019-02-23T03:46:09.420Z,21.30
2019-02-23T03:49:24.983Z,21.30
2019-02-23T03:52:40.860Z,21.30
2019-02-23T03:55:56.371Z,21.30
2019-02-23T03:59:12.339Z,21.30
2019-02-23T04:02:28.008Z,21.30
2019-02-23T04:05:43.879Z,21.30
2019-02-23T04:08:59.263Z,21.30
2019-02-23T04:12:14.525Z,21.30
2019-02-23T04:15:30.503Z,21.30
2019-02-23T04:18:46.608Z,21.30
2019-02-23T04:22:02.467Z,21.30
2019-02-23T04:25:17.815Z,21.30
2019-02-23T04:28:32.988Z,21.30
2019-02-23T04:31:48.427Z,21.30
2019-02-23T04:35:04.535Z,21.30
2019-02-23T04:38:20.594Z,21.30
2019-02-23T04:41:35.846Z,21.30
2019-02-23T04:44:51.766Z,21.30
2019-02-23T04:48:07.021Z,21.30
2019-02-23T04:51:23.164Z,21.30
2019-02-23T04:54:39.025Z,21.20
2019-02-23T04:57:55.107Z,21.20
2019-02-23T05:01:10.281Z,21.30
2019-02-23T05:04:25.682Z,21.20
2019-02-23T05:07:40.873Z,21.20
2019-02-23T05:10:56.750Z,21.20
2019-02-23T05:14:12.680Z,21.20
2019-02-23T05:17:28.741Z,21.20
2019-02-23T05:20:44.755Z,21.20
2019-02-23T05:24:00.600Z,21.20
2019-02-23T05:27:15.915Z,21.20
2019-02-23T05:30:31.182Z,21.20
2019-02-23T05:33:47.227Z,21.20
2019-02-23T05:37:03.039Z,21.20
2019-02-23T05:40:18.420Z,21.10
2019-02-23T05:43:34.418Z,21.20
2019-02-23T05:46:50.554Z,21.20
2019-02-23T05:50:06.703Z,21.20
2019-02-23T05:53:22.124Z,21.20
2019-02-23T05:56:37.897Z,21.10
2019-02-23T05:59:51.603Z,21.10
2019-02-23T06:03:14.295Z,21.10
2019-02-23T06:06:30.368Z,21.10
2019-02-23T06:09:46.460Z,21.10
2019-02-23T06:13:02.538Z,21.10
2019-02-23T06:16:17.757Z,21.10
2019-02-23T06:19:33.582Z,21.10
2019-02-23T06:22:49.491Z,21.10
2019-02-23T06:26:05.456Z,21.10
2019-02-23T06:29:21.191Z,21.10
2019-02-23T06:32:36.355Z,21.10
2019-02-23T06:35:52.339Z,21.10
2019-02-23T06:39:08.436Z,21.10
2019-02-23T06:42:23.698Z,21.10
2019-02-23T06:45:39.676Z,21.10
2019-02-23T06:48:55.677Z,21.10
2019-02-23T06:52:09.356Z,21.10
2019-02-23T06:55:32.045Z,21.00
2019-02-23T06:58:47.507Z,21.10
2019-02-23T07:02:03.451Z,21.10
2019-02-23T07:05:19.474Z,21.00
2019-02-23T07:08:35.481Z,21.10
2019-02-23T07:11:51.481Z,21.10
2019-02-23T07:15:06.738Z,21.10
2019-02-23T07:18:21.988Z,21.10
2019-02-23T07:21:37.906Z,21.10
2019-02-23T07:24:53.710Z,21.00
2019-02-23T07:28:10.955Z,21.00
2019-02-23T07:31:24.525Z,21.10
2019-02-23T07:34:47.320Z,21.10
2019-02-23T07:38:03.301Z,21.10
2019-02-23T07:41:18.992Z,21.10
2019-02-23T07:44:35.018Z,21.10
2019-02-23T07:47:50.354Z,21.00
2019-02-23T07:54:34.746Z,21.00
2019-02-23T07:57:49.967Z,21.00
2019-02-23T08:01:05.745Z,21.00
2019-02-23T08:04:21.938Z,21.00
2019-02-23T08:07:39.817Z,21.00
2019-02-23T08:10:55.038Z,21.00
2019-02-23T08:14:10.808Z,21.00
2019-02-23T08:17:24.395Z,21.00
2019-02-23T08:20:47.141Z,21.00
2019-02-23T08:24:02.774Z,21.00
2019-02-23T08:27:18.716Z,21.00
2019-02-23T08:30:34.130Z,21.00
2019-02-23T08:33:47.758Z,21.00
2019-02-23T08:37:03.567Z,21.00
2019-02-23T08:40:18.782Z,21.00
2019-02-23T08:43:34.685Z,21.00
2019-02-23T08:46:50.736Z,21.00
2019-02-23T08:50:06.346Z,21.00
2019-02-23T08:53:22.371Z,21.00
2019-02-23T08:56:38.155Z,21.00
2019-02-23T08:59:54.419Z,21.00
2019-02-23T09:03:10.309Z,21.00
2019-02-23T09:06:26.341Z,21.00
2019-02-23T09:09:42.491Z,21.00
2019-02-23T09:12:56.108Z,21.00
2019-02-23T09:16:18.815Z,21.00
2019-02-23T09:19:34.362Z,21.10
2019-02-23T09:22:59.832Z,21.00
2019-02-23T09:26:07.530Z,21.00
2019-02-23T09:29:21.258Z,21.10
2019-02-23T09:32:36.618Z,21.10
2019-02-23T09:35:52.565Z,21.10
2019-02-23T09:39:08.715Z,21.10
2019-02-23T09:42:24.758Z,21.10
2019-02-23T09:45:40.027Z,21.10
2019-02-23T09:48:56.452Z,21.10
2019-02-23T09:52:11.987Z,21.10
2019-02-23T09:55:27.850Z,21.10
2019-02-23T09:58:43.893Z,21.10
2019-02-23T10:01:47.284Z,21.10
2019-02-23T10:05:10.012Z,21.20
2019-02-23T10:08:25.781Z,21.10
2019-02-23T10:11:41.750Z,21.20
2019-02-23T10:14:57.581Z,21.20
2019-02-23T10:18:11.194Z,21.20
2019-02-23T10:21:33.895Z,21.20
2019-02-23T10:24:49.407Z,21.20
2019-02-23T10:28:04.663Z,21.20
2019-02-23T10:31:20.627Z,21.30
2019-02-23T10:34:36.483Z,21.30
2019-02-23T10:37:52.200Z,21.30
2019-02-23T10:41:07.843Z,21.30
2019-02-23T10:44:23.939Z,21.30
2019-02-23T10:47:39.871Z,21.40
2019-02-23T10:50:55.770Z,21.40
2019-02-23T10:54:11.554Z,21.40
2019-02-23T10:57:26.862Z,21.40
2019-02-23T11:00:42.830Z,21.40
2019-02-23T11:03:58.185Z,21.40
2019-02-23T11:07:13.906Z,21.50
2019-02-23T11:10:29.747Z,21.50
2019-02-23T11:13:45.675Z,21.50
2019-02-23T11:17:01.458Z,21.50
2019-02-23T11:24:00.266Z,21.50
2019-02-23T11:27:16.525Z,21.60
2019-02-23T11:30:30.200Z,21.60
2019-02-23T11:33:45.567Z,21.60
2019-02-23T11:37:01.558Z,21.70
2019-02-23T11:40:17.586Z,21.60
2019-02-23T11:43:33.585Z,21.70
2019-02-23T11:46:36.832Z,21.70
2019-02-23T11:49:59.533Z,21.70
2019-02-23T11:53:22.230Z,21.70
2019-02-23T11:56:37.962Z,21.70
2019-02-23T11:59:53.875Z,21.70
2019-02-23T12:03:09.860Z,21.80
2019-02-23T12:06:25.043Z,21.80
2019-02-23T12:09:40.652Z,21.80
2019-02-23T12:12:56.679Z,21.80
2019-02-23T12:16:11.891Z,21.80
2019-02-23T12:19:27.982Z,21.90
2019-02-23T12:22:44.214Z,21.90
2019-02-23T12:26:00.057Z,21.90
2019-02-23T12:29:15.407Z,21.90
2019-02-23T12:32:31.327Z,21.90
2019-02-23T12:35:44.877Z,21.90
2019-02-23T12:39:00.110Z,22.00
2019-02-23T12:42:15.402Z,22.00
2019-02-23T12:45:31.333Z,22.00
2019-02-23T12:48:47.252Z,22.00
2019-02-23T12:51:50.531Z,22.00
2019-02-23T12:55:13.246Z,22.00
2019-02-23T12:58:35.956Z,22.00
2019-02-23T13:01:51.441Z,22.10
2019-02-23T13:05:06.903Z,22.10
2019-02-23T13:08:22.982Z,22.10
2019-02-23T13:11:38.773Z,22.10
2019-02-23T13:14:54.104Z,22.10
2019-02-23T13:18:16.571Z,22.10
2019-02-23T13:21:32.398Z,22.10
2019-02-23T13:24:48.750Z,22.10
2019-02-23T13:28:04.625Z,22.10
2019-02-23T13:31:20.584Z,22.20
2019-02-23T13:34:35.823Z,22.10
2019-02-23T13:37:51.591Z,22.20
2019-02-23T13:41:07.494Z,22.20
2019-02-23T13:44:23.365Z,22.20
2019-02-23T13:47:39.283Z,22.20
2019-02-23T13:50:55.238Z,22.20
2019-02-23T13:54:10.557Z,22.20
2019-02-23T13:57:26.493Z,22.20
2019-02-23T14:00:42.274Z,22.20
2019-02-23T14:03:57.871Z,22.30
2019-02-23T14:07:13.762Z,22.30
2019-02-23T14:10:29.727Z,22.30
2019-02-23T14:13:45.194Z,22.30
2019-02-23T14:17:01.082Z,22.30
2019-02-23T14:20:17.047Z,22.30
2019-02-23T14:23:33.003Z,22.40
2019-02-23T14:26:48.824Z,22.40
2019-02-23T14:30:04.647Z,22.40
2019-02-23T14:33:20.269Z,22.40
2019-02-23T14:36:36.255Z,22.30
2019-02-23T14:39:52.285Z,22.40
2019-02-23T14:43:07.590Z,22.40
2019-02-23T14:46:23.444Z,22.40
2019-02-23T14:49:39.575Z,22.40
2019-02-23T14:52:55.369Z,22.40
2019-02-23T14:56:11.476Z,22.40
2019-02-23T14:59:27.291Z,22.40
2019-02-23T15:03:09.450Z,22.40
2019-02-23T15:06:25.443Z,22.40
2019-02-23T15:09:40.662Z,22.40
2019-02-23T15:12:56.667Z,22.40
2019-02-23T15:16:17.180Z,22.40
2019-02-23T15:19:29.803Z,22.40
2019-02-23T15:22:47.891Z,22.40
2019-02-23T15:26:22.930Z,22.40
2019-02-23T15:30:05.103Z,22.40
2019-02-23T15:33:21.147Z,22.50
2019-02-23T15:36:36.806Z,22.40
2019-02-23T15:39:52.796Z,22.40
2019-02-23T15:43:08.500Z,22.40
2019-02-23T15:46:24.749Z,22.40
2019-02-23T15:49:40.724Z,22.40
2019-02-23T15:52:56.498Z,22.40
2019-02-23T15:56:12.678Z,22.40
2019-02-23T15:59:28.599Z,22.40
2019-02-23T16:02:44.526Z,22.40
2019-02-23T16:06:00.100Z,22.40
2019-02-23T16:09:16.228Z,22.40
2019-02-23T16:12:32.057Z,22.40
2019-02-23T16:15:48.233Z,22.40
2019-02-23T16:19:01.884Z,22.40
2019-02-23T16:22:18.698Z,22.40
2019-02-23T16:25:38.314Z,22.40
2019-02-23T16:28:51.914Z,22.40
2019-02-23T16:32:07.797Z,22.40
2019-02-23T16:35:23.687Z,22.40
2019-02-23T16:38:39.558Z,22.30
2019-02-23T16:41:54.761Z,22.30
2019-02-23T16:45:10.968Z,22.30
2019-02-23T16:48:27.051Z,22.30
2019-02-23T16:51:42.797Z,22.30
2019-02-23T16:54:58.798Z,22.30
2019-02-23T16:58:14.620Z,22.20
2019-02-23T17:01:30.648Z,22.20
2019-02-23T17:04:53.554Z,22.20
2019-02-23T17:08:03.488Z,22.20
2019-02-23T17:11:19.361Z,22.20
2019-02-23T17:14:35.072Z,22.20
2019-02-23T17:17:48.700Z,22.20
2019-02-23T17:21:11.399Z,22.20
2019-02-23T17:24:27.036Z,22.20
2019-02-23T17:27:43.210Z,22.20
2019-02-23T17:30:58.853Z,22.20
2019-02-23T17:34:12.534Z,22.20
2019-02-23T17:37:28.029Z,22.20
2019-02-23T17:40:43.870Z,22.20
2019-02-23T17:43:59.318Z,22.20
2019-02-23T17:47:15.675Z,22.20
2019-02-23T17:50:31.346Z,22.20
2019-02-23T17:53:47.238Z,22.20
2019-02-23T17:57:03.097Z,22.20
2019-02-23T18:00:21.375Z,22.20
2019-02-23T18:03:37.271Z,22.20
2019-02-23T18:06:53.351Z,22.20
2019-02-23T18:10:09.343Z,22.20
2019-02-23T18:13:25.527Z,22.20
2019-02-23T18:16:41.665Z,22.20
2019-02-23T18:19:57.385Z,22.20
2019-02-23T18:23:13.092Z,22.20
2019-02-23T18:26:28.767Z,22.20
2019-02-23T18:29:44.642Z,22.20
2019-02-23T18:33:00.737Z,22.20
2019-02-23T18:43:23.102Z,22.90
2019-02-23T18:46:38.378Z,22.30
2019-02-23T18:49:54.406Z,22.20
2019-02-23T18:53:10.205Z,22.20
2019-02-23T18:56:29.551Z,22.20
2019-02-23T18:59:42.516Z,22.20
2019-02-23T19:02:58.576Z,22.20
2019-02-23T19:06:14.361Z,22.20
2019-02-23T19:09:30.058Z,22.20
2019-02-23T19:12:45.319Z,22.20
2019-02-23T19:16:00.578Z,22.20
2019-02-23T19:19:16.515Z,22.20
2019-02-23T19:22:31.751Z,22.20
2019-02-23T19:25:47.615Z,22.20
2019-02-23T19:29:03.690Z,22.20
2019-02-23T19:32:17.265Z,22.20
2019-02-23T19:35:39.950Z,22.20
2019-02-23T19:38:55.527Z,22.20
2019-02-23T19:42:11.598Z,22.20
2019-02-23T19:45:27.459Z,22.20
2019-02-23T19:48:43.496Z,22.20
2019-02-23T19:51:58.854Z,22.20
2019-02-23T19:55:14.242Z,22.20
2019-02-23T19:58:29.862Z,22.20
2019-02-23T20:01:45.717Z,22.20
2019-02-23T20:05:01.587Z,22.20
2019-02-23T20:08:17.530Z,22.20
2019-02-23T20:11:33.600Z,22.20
2019-02-23T20:14:49.454Z,22.20
2019-02-23T20:18:05.955Z,22.20
2019-02-23T20:21:21.546Z,22.20
2019-02-23T20:24:36.747Z,22.20
2019-02-23T20:27:52.162Z,22.20
2019-02-23T20:31:08.279Z,22.20
2019-02-23T20:34:24.223Z,22.20
2019-02-23T20:37:39.959Z,22.20
2019-02-23T20:40:56.162Z,22.20
2019-02-23T20:44:12.231Z,22.20
2019-02-23T20:47:27.563Z,22.20
2019-02-23T20:50:42.884Z,22.20
2019-02-23T20:53:59.118Z,22.20
2019-02-23T20:57:14.950Z,22.20
2019-02-23T21:00:30.196Z,22.20
2019-02-23T21:03:43.897Z,22.20
2019-02-23T21:07:06.638Z,22.20
2019-02-23T21:10:22.810Z,22.20
2019-02-23T21:13:38.831Z,22.20
2019-02-23T21:16:54.296Z,22.20
2019-02-23T21:20:08.541Z,22.20
2019-02-23T21:23:31.257Z,22.20
2019-02-23T21:26:46.803Z,22.20
2019-02-23T21:30:02.060Z,22.20
2019-02-23T21:33:18.045Z,22.20
2019-02-23T21:36:33.258Z,22.20
2019-02-23T21:39:49.398Z,22.20
2019-02-23T21:43:02.942Z,22.20
2019-02-23T21:46:25.627Z,22.20
2019-02-23T21:49:41.763Z,22.20
2019-02-23T21:52:57.606Z,22.20
2019-02-23T21:56:13.697Z,22.20
2019-02-23T21:59:29.819Z,22.10
2019-02-23T22:02:45.799Z,22.10
2019-02-23T22:06:01.786Z,22.10
2019-02-23T22:09:17.864Z,22.10
2019-02-23T22:12:33.967Z,22.10
2019-02-23T22:15:50.132Z,22.00
2019-02-23T22:19:06.055Z,22.00
2019-02-23T22:22:21.957Z,22.00
2019-02-23T22:25:37.321Z,22.00
2019-02-23T22:28:53.281Z,21.90
2019-02-23T22:32:09.301Z,21.90
2019-02-23T22:35:24.780Z,21.90
2019-02-23T22:38:40.778Z,21.90
2019-02-23T22:41:56.602Z,21.90
2019-02-23T22:45:12.333Z,21.90
2019-02-23T22:48:28.041Z,21.80
2019-02-23T22:51:44.197Z,21.80
2019-02-23T22:55:00.279Z,21.80
2019-02-23T22:58:16.252Z,21.80
2019-02-23T23:01:32.014Z,21.80
2019-02-23T23:04:45.581Z,21.70
2019-02-23T23:08:08.331Z,21.70
2019-02-23T23:11:23.591Z,21.70
2019-02-23T23:14:38.824Z,21.70
2019-02-23T23:17:54.039Z,21.70
2019-02-23T23:21:10.154Z,21.70
2019-02-23T23:24:25.883Z,21.70
2019-02-23T23:27:49.081Z,21.60
2019-02-23T23:30:58.879Z,21.60
2019-02-23T23:34:14.633Z,21.60
2019-02-23T23:37:30.751Z,21.60
2019-02-23T23:40:46.606Z,21.60
2019-02-23T23:44:02.594Z,21.60
2019-02-23T23:47:18.442Z,21.60
2019-02-23T23:50:33.638Z,21.50
2019-02-23T23:53:49.732Z,21.50
2019-02-23T23:57:05.566Z,21.50
